Time;durP1;ratioP1;P1;durP2;ratioP2;P2;SDS_P1;SDS_P2;PMS_P1;PMS_P2;Temp;Humidity;BMP_temperature;BMP_pressure;BME280_temperature;BME280_humidity;BME280_pressure;Samples;Min_cycle;Max_cycle;Signal;HPM_P1;HPM_P2
2023/09/10 00:00:41;;;;;;;7.80;5.30;;;;;;;11.92;60.03;100242.18;106753;1263;59869;-41
2023/09/10 00:03:08;;;;;;;9.10;5.90;;;;;;;11.90;60.07;100240.21;106771;1264;59360;-41
2023/09/10 00:05:37;;;;;;;10.20;6.20;;;;;;;11.88;59.83;100239.30;106768;1264;73094;-41
2023/09/10 00:08:05;;;;;;;9.20;6.30;;;;;;;11.78;59.81;100224.74;106770;1266;66395;-41
2023/09/10 00:10:32;;;;;;;9.50;6.30;;;;;;;11.86;59.89;100238.30;106750;1264;71423;-41
2023/09/10 00:13:03;;;;;;;9.30;6.30;;;;;;;11.83;59.65;100238.14;106690;1267;59749;-41
2023/09/10 00:15:31;;;;;;;11.90;6.10;;;;;;;11.81;59.93;100244.00;106817;1266;60277;-41
2023/09/10 00:17:58;;;;;;;10.30;6.30;;;;;;;11.80;59.94;100244.52;106733;1264;72834;-41
2023/09/10 00:20:27;;;;;;;10.90;6.20;;;;;;;11.78;59.97;100244.21;106741;1264;67922;-41
2023/09/10 00:22:57;;;;;;;7.70;6.10;;;;;;;11.73;59.98;100246.23;106793;1263;72726;-41
2023/09/10 00:25:25;;;;;;;9.50;6.10;;;;;;;11.69;59.97;100250.84;106825;1263;60050;-41
2023/09/10 00:27:53;;;;;;;12.30;6.00;;;;;;;11.67;60.01;100253.59;106776;1263;59621;-41
2023/09/10 00:30:20;;;;;;;8.70;5.80;;;;;;;11.64;60.08;100253.58;106747;1263;71760;-41
2023/09/10 00:32:48;;;;;;;10.10;6.30;;;;;;;11.61;60.28;100249.92;106762;1263;67926;-41
2023/09/10 00:35:15;;;;;;;10.20;6.40;;;;;;;11.57;60.62;100249.41;106825;1266;71422;-41
2023/09/10 00:37:43;;;;;;;8.80;5.80;;;;;;;11.56;60.60;100248.63;106839;1266;60064;-41
2023/09/10 00:40:11;;;;;;;9.40;5.70;;;;;;;11.55;60.72;100248.27;106737;1261;60031;-41
2023/09/10 00:42:39;;;;;;;8.80;5.70;;;;;;;11.54;60.77;100246.52;106828;1264;72880;-41
2023/09/10 00:45:12;;;;;;;9.60;5.10;;;;;;;11.52;60.95;100246.71;106699;1263;66498;-43
2023/09/10 00:47:44;;;;;;;10.70;5.60;;;;;;;11.54;61.14;100242.04;106758;1264;72728;-42
2023/09/10 00:50:13;;;;;;;9.40;5.90;;;;;;;11.60;61.19;100242.98;106760;1263;60121;-41
2023/09/10 00:52:45;;;;;;;10.10;5.80;;;;;;;11.62;61.37;100242.96;106790;1263;60073;-41
2023/09/10 00:55:13;;;;;;;10.20;5.90;;;;;;;11.63;61.50;100240.88;106782;1263;73024;-41
2023/09/10 00:57:41;;;;;;;10.40;5.60;;;;;;;11.64;61.34;100244.34;106915;1263;66312;-41
2023/09/10 01:00:10;;;;;;;8.20;5.90;;;;;;;11.65;60.97;100240.81;106888;1263;71454;-41
2023/09/10 01:02:38;;;;;;;10.40;5.70;;;;;;;11.65;60.88;100243.14;106903;1261;59640;-41
2023/09/10 01:05:06;;;;;;;8.60;5.50;;;;;;;11.63;60.86;100243.39;106836;1263;60017;-41
2023/09/10 01:07:34;;;;;;;9.90;5.70;;;;;;;11.60;60.66;100246.63;106907;1261;73093;-41
2023/09/10 01:10:04;;;;;;;8.60;5.40;;;;;;;11.57;60.75;100250.05;106800;1263;66790;-41
2023/09/10 01:12:47;;;;;;;11.70;5.60;;;;;;;11.55;60.72;100247.66;106844;1264;71782;-41
2023/09/10 01:15:19;;;;;;;10.40;5.50;;;;;;;11.51;60.71;100246.91;106859;1261;60104;-41
2023/09/10 01:17:52;;;;;;;8.60;6.00;;;;;;;11.47;60.52;100248.18;106898;1267;59615;-41
2023/09/10 01:20:49;;;;;;;9.50;5.40;;;;;;;11.43;60.68;100253.10;106874;1263;73027;-41
2023/09/10 01:23:30;;;;;;;8.40;5.20;;;;;;;11.38;60.86;100250.79;106764;1267;67916;-41
2023/09/10 01:25:58;;;;;;;8.90;5.20;;;;;;;11.35;61.25;100248.67;106825;1262;72671;-41
2023/09/10 01:28:26;;;;;;;9.50;5.30;;;;;;;11.31;61.62;100248.20;106777;1263;60042;-41
2023/09/10 01:30:53;;;;;;;8.10;5.10;;;;;;;11.29;61.91;100248.95;106749;1266;59820;-41
2023/09/10 01:33:35;;;;;;;8.40;5.30;;;;;;;11.30;62.23;100249.64;107022;1258;71783;-41
2023/09/10 01:36:11;;;;;;;7.70;5.10;;;;;;;11.37;62.60;100253.95;107044;1258;67925;-41
2023/09/10 01:38:41;;;;;;;8.30;4.90;;;;;;;11.38;62.80;100252.80;107233;1257;72648;-40
2023/09/10 01:41:13;;;;;;;6.50;4.60;;;;;;;11.39;63.06;100250.50;107195;1260;60264;-41
2023/09/10 01:43:41;;;;;;;7.30;4.90;;;;;;;11.40;63.07;100251.69;107108;1262;60142;-41
2023/09/10 01:46:09;;;;;;;9.10;5.40;;;;;;;11.40;62.45;100252.69;107050;1265;72099;-41
2023/09/10 01:48:37;;;;;;;6.60;5.30;;;;;;;11.39;62.29;100251.90;107200;1260;67701;-41
2023/09/10 01:51:05;;;;;;;8.40;5.20;;;;;;;11.38;62.36;100250.86;107049;1263;70796;-41
2023/09/10 01:53:33;;;;;;;7.70;5.10;;;;;;;11.37;62.31;100248.66;107171;1261;60295;-41
2023/09/10 01:56:00;;;;;;;6.80;4.90;;;;;;;11.34;62.29;100254.56;107244;1259;60240;-41
2023/09/10 01:58:28;;;;;;;8.20;4.70;;;;;;;11.31;62.46;100249.59;107031;1257;73080;-41
2023/09/10 02:00:56;;;;;;;8.90;5.30;;;;;;;11.28;62.40;100248.80;107036;1258;66414;-41
2023/09/10 02:03:23;;;;;;;7.60;5.10;;;;;;;11.26;62.32;100249.64;107187;1259;72657;-41
2023/09/10 02:05:51;;;;;;;8.80;5.40;;;;;;;11.22;62.09;100250.09;107181;1261;59605;-41
2023/09/10 02:08:19;;;;;;;8.30;5.00;;;;;;;11.19;61.90;100251.91;107055;1263;59989;-41
2023/09/10 02:10:46;;;;;;;7.30;5.10;;;;;;;11.16;61.84;100248.27;107178;1263;73146;-41
2023/09/10 02:13:14;;;;;;;7.50;5.20;;;;;;;11.13;61.98;100246.55;107194;1262;66441;-41
2023/09/10 02:15:41;;;;;;;8.50;5.20;;;;;;;11.10;62.06;100244.19;107155;1261;72664;-41
2023/09/10 02:18:09;;;;;;;7.90;5.60;;;;;;;11.09;62.25;100243.85;107185;1260;59717;-41
2023/09/10 02:20:39;;;;;;;8.10;5.20;;;;;;;11.11;62.27;100246.18;107243;1261;59270;-41
2023/09/10 02:23:06;;;;;;;9.40;4.80;;;;;;;11.16;62.25;100244.71;107228;1260;73051;-41
2023/09/10 02:25:34;;;;;;;7.60;5.20;;;;;;;11.17;61.93;100246.05;107234;1258;65303;-40
2023/09/10 02:28:05;;;;;;;11.80;5.40;;;;;;;11.17;61.77;100245.73;107199;1262;72791;-41
2023/09/10 02:30:33;;;;;;;7.40;5.00;;;;;;;11.17;61.76;100244.50;107031;1260;59648;-41
2023/09/10 02:33:01;;;;;;;8.60;4.90;;;;;;;11.18;62.03;100244.77;107232;1258;60479;-41
2023/09/10 02:35:29;;;;;;;8.20;5.20;;;;;;;11.09;62.17;100233.65;107232;1260;73081;-41
2023/09/10 02:37:56;;;;;;;9.40;4.80;;;;;;;11.13;61.91;100243.92;107264;1257;68324;-41
2023/09/10 02:40:24;;;;;;;8.40;4.90;;;;;;;11.10;61.71;100243.25;107097;1261;72730;-41
2023/09/10 02:42:51;;;;;;;8.70;5.30;;;;;;;11.06;61.51;100241.36;107206;1262;59673;-41
2023/09/10 02:45:19;;;;;;;8.10;5.10;;;;;;;11.03;61.67;100246.55;107220;1257;60209;-41
2023/09/10 02:47:46;;;;;;;7.40;5.00;;;;;;;11.01;61.89;100246.86;107056;1263;71797;-41
2023/09/10 02:50:14;;;;;;;8.00;5.30;;;;;;;10.99;62.13;100244.16;107042;1258;66803;-41
2023/09/10 02:52:42;;;;;;;8.40;5.30;;;;;;;10.97;62.18;100243.94;107228;1258;72720;-41
2023/09/10 02:55:09;;;;;;;7.50;5.00;;;;;;;10.91;62.16;100247.96;107220;1257;60095;-41
2023/09/10 02:57:37;;;;;;;9.90;5.20;;;;;;;10.85;62.22;100249.02;107230;1257;59362;-41
2023/09/10 03:00:06;;;;;;;9.40;4.70;;;;;;;10.81;62.21;100252.84;107136;1260;73056;-41
2023/09/10 03:02:34;;;;;;;9.20;5.30;;;;;;;10.78;61.93;100248.02;107235;1262;67936;-41
2023/09/10 03:05:02;;;;;;;8.40;5.10;;;;;;;10.75;62.15;100247.30;107188;1258;72737;-41
2023/09/10 03:07:31;;;;;;;7.30;4.60;;;;;;;10.71;62.24;100246.01;107071;1262;61142;-41
2023/09/10 03:09:59;;;;;;;8.80;5.10;;;;;;;10.69;62.27;100247.41;107177;1258;60118;-41
2023/09/10 03:12:28;;;;;;;7.80;4.80;;;;;;;10.71;62.27;100248.23;107251;1260;71888;-41
2023/09/10 03:14:56;;;;;;;10.10;5.20;;;;;;;10.73;62.10;100249.41;107111;1259;66514;-41
2023/09/10 03:17:24;;;;;;;7.80;5.10;;;;;;;10.74;62.01;100249.52;107064;1258;71444;-41
2023/09/10 03:19:53;;;;;;;7.60;4.80;;;;;;;10.74;62.16;100248.98;107280;1258;59644;-41
2023/09/10 03:22:22;;;;;;;6.60;4.20;;;;;;;10.75;62.05;100248.98;107076;1257;59984;-41
2023/09/10 03:24:49;;;;;;;8.00;4.70;;;;;;;10.75;62.14;100247.44;107033;1260;73042;-41
2023/09/10 03:27:17;;;;;;;10.40;5.20;;;;;;;10.71;62.13;100252.44;107107;1260;66623;-41
2023/09/10 03:29:45;;;;;;;9.20;5.10;;;;;;;10.67;62.20;100251.83;107032;1260;71409;-41
2023/09/10 03:32:13;;;;;;;6.70;4.60;;;;;;;10.60;62.34;100249.19;107226;1263;61112;-41
2023/09/10 03:34:42;;;;;;;10.60;5.10;;;;;;;10.54;62.49;100247.00;107030;1263;60454;-41
2023/09/10 03:37:10;;;;;;;9.70;4.80;;;;;;;10.52;62.41;100246.35;107030;1263;74353;-41
2023/09/10 03:39:37;;;;;;;9.30;4.60;;;;;;;10.49;62.38;100242.66;107054;1258;67581;-41
2023/09/10 03:42:05;;;;;;;7.80;4.90;;;;;;;10.49;62.46;100250.06;107043;1263;71507;-41
2023/09/10 03:44:33;;;;;;;9.40;4.80;;;;;;;10.43;62.36;100250.35;107014;1260;60489;-41
2023/09/10 03:47:00;;;;;;;9.30;4.80;;;;;;;10.39;62.39;100249.59;107039;1257;60515;-41
2023/09/10 03:49:28;;;;;;;8.20;4.60;;;;;;;10.42;62.45;100251.09;107049;1258;72587;-41
2023/09/10 03:51:57;;;;;;;9.00;4.90;;;;;;;10.42;62.41;100249.61;107083;1263;66663;-41
2023/09/10 03:54:25;;;;;;;7.00;4.80;;;;;;;10.39;62.43;100249.97;107045;1266;72716;-41
2023/09/10 03:56:52;;;;;;;6.50;4.20;;;;;;;10.38;62.55;100253.18;107033;1262;60389;-41
2023/09/10 03:59:20;;;;;;;7.40;4.90;;;;;;;10.39;62.54;100258.25;107088;1257;60444;-41
2023/09/10 04:01:48;;;;;;;7.20;4.70;;;;;;;10.40;62.56;100256.83;107042;1260;73866;-41
2023/09/10 04:04:15;;;;;;;7.40;4.30;;;;;;;10.41;62.52;100258.47;107054;1264;67874;-41
2023/09/10 04:06:43;;;;;;;9.30;4.70;;;;;;;10.41;62.63;100259.80;107044;1263;71393;-41
2023/09/10 04:09:11;;;;;;;7.90;4.30;;;;;;;10.40;62.89;100256.05;107020;1260;60507;-41
2023/09/10 04:11:39;;;;;;;6.50;4.40;;;;;;;10.37;63.25;100255.70;107043;1258;61050;-41
2023/09/10 04:14:06;;;;;;;7.00;4.60;;;;;;;10.37;63.45;100258.73;107041;1257;73895;-41
2023/09/10 04:16:34;;;;;;;6.80;4.40;;;;;;;10.41;63.38;100258.40;107056;1258;68227;-41
2023/09/10 04:19:03;;;;;;;7.20;4.40;;;;;;;10.49;63.39;100257.67;107046;1263;72746;-41
2023/09/10 04:21:31;;;;;;;7.30;4.50;;;;;;;10.58;63.40;100256.55;107062;1261;60523;-40
2023/09/10 04:23:59;;;;;;;8.50;4.80;;;;;;;10.65;63.36;100258.83;107052;1263;59787;-41
2023/09/10 04:26:27;;;;;;;8.30;4.90;;;;;;;10.74;63.33;100259.88;107019;1263;73879;-40
2023/09/10 04:28:55;;;;;;;9.20;5.00;;;;;;;10.81;63.23;100263.45;107095;1263;67900;-41
2023/09/10 04:31:22;;;;;;;7.20;5.20;;;;;;;10.88;63.34;100263.66;107051;1263;72551;-41
2023/09/10 04:33:50;;;;;;;9.20;4.90;;;;;;;10.95;63.36;100261.95;107057;1261;60444;-41
2023/09/10 04:36:17;;;;;;;9.30;6.00;;;;;;;11.02;63.55;100262.88;107066;1257;60040;-41
2023/09/10 04:38:45;;;;;;;10.40;6.10;;;;;;;11.09;63.64;100263.94;107036;1258;74383;-41
2023/09/10 04:41:13;;;;;;;10.10;6.10;;;;;;;11.14;63.69;100265.33;107048;1262;66357;-42
2023/09/10 04:43:42;;;;;;;9.10;5.70;;;;;;;11.19;63.68;100264.23;107043;1263;71392;-41
2023/09/10 04:46:09;;;;;;;11.00;6.10;;;;;;;11.25;63.68;100262.65;107003;1257;60244;-40
2023/09/10 04:48:37;;;;;;;9.30;5.90;;;;;;;11.33;63.95;100264.13;107047;1257;60090;-41
2023/09/10 04:51:07;;;;;;;9.20;5.50;;;;;;;11.46;63.87;100265.92;107097;1257;74517;-40
2023/09/10 04:53:35;;;;;;;9.20;5.90;;;;;;;11.62;63.72;100264.84;107048;1257;66828;-40
2023/09/10 04:56:03;;;;;;;12.30;6.20;;;;;;;11.75;63.65;100266.48;107047;1260;71533;-40
2023/09/10 04:58:31;;;;;;;10.10;5.70;;;;;;;11.88;63.27;100265.52;107086;1260;60500;-40
2023/09/10 05:00:59;;;;;;;9.60;5.90;;;;;;;12.01;62.94;100269.00;107058;1257;60393;-40
2023/09/10 05:03:27;;;;;;;12.50;7.10;;;;;;;12.13;62.64;100262.20;107217;1258;72855;-40
2023/09/10 05:05:59;;;;;;;11.00;6.60;;;;;;;12.25;62.28;100264.98;107018;1257;67891;-40
2023/09/10 05:08:27;;;;;;;10.00;6.20;;;;;;;12.36;61.90;100268.23;107093;1260;71491;-40
2023/09/10 05:10:55;;;;;;;11.20;7.00;;;;;;;12.45;61.62;100264.05;107044;1258;60514;-40
2023/09/10 05:13:23;;;;;;;9.90;6.70;;;;;;;12.54;61.35;100266.21;107116;1260;60310;-40
2023/09/10 05:15:54;;;;;;;11.50;6.70;;;;;;;12.62;60.79;100265.40;107038;1264;71768;-40
2023/09/10 05:18:24;;;;;;;10.70;6.80;;;;;;;12.71;60.41;100268.05;107059;1257;66343;-40
2023/09/10 05:20:52;;;;;;;13.50;7.10;;;;;;;12.80;60.15;100274.17;107079;1261;71401;-40
2023/09/10 05:23:26;;;;;;;11.10;6.70;;;;;;;12.88;59.89;100270.64;107094;1257;60280;-40
2023/09/10 05:25:54;;;;;;;8.60;6.50;;;;;;;12.97;59.64;100271.99;107056;1257;60364;-40
2023/09/10 05:28:23;;;;;;;11.20;6.60;;;;;;;13.03;59.65;100270.54;107107;1258;73933;-40
2023/09/10 05:30:50;;;;;;;8.90;6.60;;;;;;;13.13;59.63;100277.14;107064;1258;67721;-40
2023/09/10 05:33:18;;;;;;;12.40;6.80;;;;;;;13.22;59.49;100276.36;107076;1258;71718;-40
2023/09/10 05:35:56;;;;;;;10.50;6.40;;;;;;;13.32;59.17;100276.44;107024;1260;60434;-40
2023/09/10 05:38:25;;;;;;;11.60;5.80;;;;;;;13.41;58.77;100274.21;107066;1263;60368;-40
2023/09/10 05:40:53;;;;;;;10.50;5.90;;;;;;;13.48;58.69;100278.73;107044;1258;72637;-40
2023/09/10 05:43:21;;;;;;;10.60;5.90;;;;;;;13.55;58.73;100284.41;107061;1258;67913;-40
2023/09/10 05:45:51;;;;;;;8.30;5.50;;;;;;;13.64;58.53;100282.64;107032;1257;71386;-40
2023/09/10 05:48:21;;;;;;;7.50;5.50;;;;;;;13.73;58.65;100284.39;107143;1262;60542;-40
2023/09/10 05:50:49;;;;;;;11.30;6.30;;;;;;;13.81;58.15;100283.31;107130;1263;60325;-40
2023/09/10 05:53:16;;;;;;;9.20;5.80;;;;;;;13.89;57.90;100281.63;107054;1260;73964;-40
2023/09/10 05:55:44;;;;;;;9.00;5.30;;;;;;;14.00;57.90;100282.52;107058;1257;66303;-40
2023/09/10 05:58:11;;;;;;;7.50;5.10;;;;;;;14.08;57.51;100282.15;107031;1262;72693;-40
2023/09/10 06:00:39;;;;;;;8.00;5.20;;;;;;;14.17;56.89;100277.02;107055;1259;60550;-40
2023/09/10 06:03:09;;;;;;;8.20;4.60;;;;;;;14.26;56.69;100274.15;107075;1258;60355;-40
2023/09/10 06:05:37;;;;;;;7.60;4.70;;;;;;;14.36;56.62;100278.56;107077;1259;73842;-40
2023/09/10 06:08:05;;;;;;;6.90;4.50;;;;;;;14.46;56.69;100283.67;107079;1258;67979;-40
2023/09/10 06:10:33;;;;;;;6.90;4.60;;;;;;;14.57;55.52;100284.17;107020;1263;72670;-40
2023/09/10 06:13:00;;;;;;;6.70;3.90;;;;;;;14.66;54.72;100281.52;107023;1257;60307;-41
2023/09/10 06:15:28;;;;;;;6.80;4.40;;;;;;;14.76;54.89;100282.64;107060;1258;60286;-41
2023/09/10 06:17:56;;;;;;;6.60;4.10;;;;;;;14.87;54.91;100287.17;107062;1263;73888;-40
2023/09/10 06:20:23;;;;;;;7.80;4.00;;;;;;;14.97;54.78;100290.85;107077;1257;66332;-40
2023/09/10 06:22:52;;;;;;;5.20;2.80;;;;;;;15.06;53.90;100290.45;107102;1262;72698;-40
2023/09/10 06:25:20;;;;;;;6.10;3.70;;;;;;;15.14;52.44;100292.84;107072;1258;60505;-40
2023/09/10 06:27:48;;;;;;;5.40;3.50;;;;;;;15.23;52.31;100291.33;107037;1257;60552;-40
2023/09/10 06:30:16;;;;;;;8.60;3.80;;;;;;;15.33;52.43;100293.51;107124;1257;73790;-40
2023/09/10 06:32:44;;;;;;;7.80;3.40;;;;;;;15.44;52.65;100290.46;107056;1257;67897;-40
2023/09/10 06:35:12;;;;;;;5.00;3.00;;;;;;;15.58;52.58;100295.53;107063;1257;71774;-40
2023/09/10 06:37:40;;;;;;;5.40;3.10;;;;;;;15.71;51.75;100293.90;107037;1257;59633;-40
2023/09/10 06:40:09;;;;;;;6.10;3.20;;;;;;;15.85;50.90;100293.53;107048;1263;61354;-40
2023/09/10 06:42:36;;;;;;;5.50;2.80;;;;;;;15.98;50.41;100292.20;107125;1257;73863;-40
2023/09/10 06:45:11;;;;;;;5.30;2.70;;;;;;;16.12;50.57;100293.47;107098;1262;67466;-40
2023/09/10 06:47:38;;;;;;;4.90;2.60;;;;;;;16.27;50.38;100295.58;107060;1263;72721;-41
2023/09/10 06:50:07;;;;;;;5.10;2.20;;;;;;;16.39;49.54;100293.13;107218;1261;59286;-40
2023/09/10 06:52:34;;;;;;;4.00;2.40;;;;;;;16.52;48.98;100291.77;107105;1257;60432;-40
2023/09/10 06:55:02;;;;;;;4.70;2.40;;;;;;;16.66;48.41;100288.89;107078;1258;73864;-40
2023/09/10 06:57:30;;;;;;;4.40;2.40;;;;;;;16.81;48.25;100286.98;107115;1262;66663;-40
2023/09/10 06:59:58;;;;;;;3.50;2.20;;;;;;;16.97;48.31;100288.83;107090;1257;72731;-41
2023/09/10 07:02:26;;;;;;;4.00;2.30;;;;;;;17.12;47.67;100287.21;107084;1258;60437;-40
2023/09/10 07:04:54;;;;;;;3.30;2.30;;;;;;;17.25;47.30;100281.84;107216;1257;60338;-40
2023/09/10 07:07:21;;;;;;;7.40;2.50;;;;;;;17.37;46.94;100279.33;107125;1257;73917;-40
2023/09/10 07:09:49;;;;;;;3.50;2.40;;;;;;;17.49;46.36;100281.98;107084;1257;67609;-41
2023/09/10 07:12:17;;;;;;;3.50;2.20;;;;;;;17.61;46.56;100279.39;107117;1257;72710;-41
2023/09/10 07:14:44;;;;;;;4.30;2.20;;;;;;;17.72;46.17;100279.45;107089;1257;60497;-41
2023/09/10 07:17:12;;;;;;;4.20;2.00;;;;;;;17.81;45.65;100275.02;107102;1258;60320;-41
2023/09/10 07:19:40;;;;;;;2.70;1.70;;;;;;;17.90;45.19;100274.05;107089;1258;73915;-41
2023/09/10 07:22:08;;;;;;;3.80;1.50;;;;;;;18.00;44.32;100274.08;107075;1257;66324;-41
2023/09/10 07:24:35;;;;;;;2.40;1.90;;;;;;;18.11;43.99;100276.39;107081;1258;71167;-41
2023/09/10 07:27:04;;;;;;;3.50;2.00;;;;;;;18.24;43.86;100273.92;107074;1260;60120;-41
2023/09/10 07:29:31;;;;;;;2.80;1.90;;;;;;;18.34;43.42;100266.26;107083;1257;60351;-41
2023/09/10 07:31:59;;;;;;;2.20;1.70;;;;;;;18.45;43.24;100268.85;107084;1257;73639;-41
2023/09/10 07:34:27;;;;;;;4.10;1.90;;;;;;;18.58;42.96;100271.89;107071;1257;67615;-41
2023/09/10 07:36:54;;;;;;;2.40;1.90;;;;;;;18.72;42.65;100271.34;107036;1260;72754;-41
2023/09/10 07:39:22;;;;;;;2.90;1.70;;;;;;;18.87;42.51;100271.42;107066;1263;60125;-41
2023/09/10 07:41:50;;;;;;;2.40;1.70;;;;;;;19.01;42.58;100267.50;107083;1262;60447;-41
2023/09/10 07:44:17;;;;;;;2.80;1.50;;;;;;;19.14;42.32;100268.51;107095;1258;73854;-41
2023/09/10 07:46:47;;;;;;;2.40;1.40;;;;;;;19.25;41.55;100265.34;107077;1258;69042;-41
2023/09/10 07:49:15;;;;;;;2.10;1.60;;;;;;;19.35;40.79;100265.55;107093;1262;72666;-41
2023/09/10 07:51:43;;;;;;;3.20;1.50;;;;;;;19.41;40.69;100268.77;107044;1258;60278;-41
2023/09/10 07:54:10;;;;;;;2.80;1.70;;;;;;;19.42;40.97;100271.11;107096;1257;60409;-41
2023/09/10 07:56:38;;;;;;;3.30;1.50;;;;;;;19.42;40.94;100276.53;107071;1257;73841;-41
2023/09/10 07:59:08;;;;;;;2.40;1.60;;;;;;;19.40;40.93;100271.77;107072;1257;68067;-41
2023/09/10 08:01:35;;;;;;;3.60;1.80;;;;;;;19.42;40.14;100273.64;107070;1258;72691;-41
2023/09/10 08:04:03;;;;;;;2.30;1.60;;;;;;;19.47;39.71;100274.36;107155;1259;60424;-41
2023/09/10 08:06:31;;;;;;;2.30;1.70;;;;;;;19.57;39.69;100272.36;107077;1258;59619;-41
2023/09/10 08:08:59;;;;;;;4.00;1.90;;;;;;;19.68;39.62;100271.38;107244;1258;73920;-41
2023/09/10 08:11:26;;;;;;;3.10;1.70;;;;;;;19.80;39.48;100268.81;107104;1262;68065;-42
2023/09/10 08:13:54;;;;;;;3.10;1.70;;;;;;;19.95;39.23;100268.75;107130;1258;71743;-41
2023/09/10 08:16:22;;;;;;;3.10;1.70;;;;;;;20.09;39.21;100268.52;107043;1258;60802;-41
2023/09/10 08:18:49;;;;;;;4.40;1.60;;;;;;;20.21;38.81;100267.13;107104;1257;60447;-41
2023/09/10 08:21:17;;;;;;;2.10;1.70;;;;;;;20.33;38.84;100261.33;107113;1257;73949;-41
2023/09/10 08:23:47;;;;;;;1.90;1.50;;;;;;;20.37;38.15;100250.28;107108;1257;67932;-43
2023/09/10 08:26:15;;;;;;;3.00;1.80;;;;;;;20.52;37.53;100261.04;107116;1258;70877;-41
2023/09/10 08:28:43;;;;;;;3.10;1.90;;;;;;;20.56;37.33;100258.11;107126;1260;60084;-41
2023/09/10 08:31:11;;;;;;;3.50;2.00;;;;;;;20.59;36.95;100257.70;107086;1257;59688;-41
2023/09/10 08:33:38;;;;;;;3.10;1.80;;;;;;;20.66;36.99;100254.95;107104;1257;73830;-41
2023/09/10 08:36:06;;;;;;;2.30;1.80;;;;;;;20.76;36.67;100252.99;107107;1257;67602;-40
2023/09/10 08:38:34;;;;;;;4.30;1.60;;;;;;;20.84;36.68;100253.08;107083;1262;71344;-40
2023/09/10 08:41:17;;;;;;;2.80;1.90;;;;;;;20.91;36.44;100254.20;107450;1254;60475;-40
2023/09/10 08:43:58;;;;;;;3.70;2.10;;;;;;;21.03;36.44;100247.64;107480;1253;60431;-40
2023/09/10 08:46:30;;;;;;;3.90;2.40;;;;;;;21.16;36.15;100248.70;107516;1254;72536;-40
2023/09/10 08:48:59;;;;;;;3.30;2.10;;;;;;;21.25;36.14;100249.17;107470;1254;67641;-41
2023/09/10 08:51:27;;;;;;;4.80;2.00;;;;;;;21.36;35.93;100250.08;107459;1253;72787;-41
2023/09/10 08:53:59;;;;;;;4.50;1.90;;;;;;;21.50;35.96;100244.81;107514;1256;60559;-41
2023/09/10 08:56:26;;;;;;;3.70;1.90;;;;;;;21.63;35.97;100246.94;107317;1254;60148;-41
2023/09/10 08:58:54;;;;;;;2.40;1.70;;;;;;;21.76;35.29;100239.84;107458;1259;73861;-41
2023/09/10 09:01:22;;;;;;;3.30;2.30;;;;;;;21.89;35.15;100232.27;107227;1254;67911;-41
2023/09/10 09:03:50;;;;;;;5.60;2.40;;;;;;;21.96;34.64;100230.69;107243;1254;72686;-41
2023/09/10 09:06:17;;;;;;;3.60;2.10;;;;;;;22.06;35.01;100231.10;107354;1253;60488;-41
2023/09/10 09:08:48;;;;;;;4.00;2.30;;;;;;;22.19;34.57;100229.59;107494;1252;61003;-41
2023/09/10 09:11:16;;;;;;;2.90;2.10;;;;;;;22.31;34.65;100224.20;107484;1254;74370;-41
2023/09/10 09:13:46;;;;;;;3.20;2.00;;;;;;;22.42;34.59;100223.08;107115;1254;67569;-41
2023/09/10 09:16:15;;;;;;;4.30;2.10;;;;;;;22.54;34.22;100224.77;107442;1253;72669;-41
2023/09/10 09:18:43;;;;;;;3.20;2.00;;;;;;;22.70;34.18;100220.02;107469;1257;60166;-41
2023/09/10 09:21:12;;;;;;;3.90;2.00;;;;;;;22.86;33.48;100218.97;107477;1254;60314;-41
2023/09/10 09:23:45;;;;;;;3.60;2.00;;;;;;;23.00;32.86;100220.77;107520;1253;74372;-41
2023/09/10 09:26:14;;;;;;;3.50;2.30;;;;;;;23.12;32.87;100212.10;107488;1254;67894;-41
2023/09/10 09:28:42;;;;;;;5.60;2.10;;;;;;;23.21;33.05;100216.43;107469;1259;72348;-41
2023/09/10 09:31:10;;;;;;;3.10;2.00;;;;;;;23.32;33.15;100214.02;107455;1257;60572;-41
2023/09/10 09:33:38;;;;;;;5.40;2.20;;;;;;;23.40;32.61;100211.23;107533;1254;60436;-41
2023/09/10 09:36:09;;;;;;;4.70;2.30;;;;;;;23.49;32.97;100212.45;107468;1254;72720;-41
2023/09/10 09:38:49;;;;;;;3.50;2.00;;;;;;;23.65;32.28;100208.80;107486;1254;67629;-41
2023/09/10 09:41:17;;;;;;;3.30;1.90;;;;;;;23.81;31.88;100207.02;107553;1254;72710;-41
2023/09/10 09:43:44;;;;;;;4.10;2.10;;;;;;;23.92;31.97;100211.30;107460;1254;60500;-41
2023/09/10 09:46:12;;;;;;;3.40;1.90;;;;;;;24.08;31.44;100206.51;107460;1254;60184;-41
2023/09/10 09:48:40;;;;;;;3.70;1.70;;;;;;;24.24;30.65;100202.84;107463;1258;73890;-41
2023/09/10 09:51:09;;;;;;;4.50;2.10;;;;;;;24.38;30.30;100200.60;107387;1254;67909;-41
2023/09/10 09:53:37;;;;;;;3.10;1.90;;;;;;;24.50;30.61;100196.98;107443;1259;72653;-41
2023/09/10 09:56:05;;;;;;;3.00;1.90;;;;;;;24.53;30.97;100199.45;107476;1254;60329;-41
2023/09/10 09:58:33;;;;;;;3.80;2.30;;;;;;;24.41;29.70;100201.32;107544;1254;59371;-41
2023/09/10 10:01:01;;;;;;;3.80;2.20;;;;;;;24.19;29.99;100197.01;107467;1254;73818;-41
2023/09/10 10:03:29;;;;;;;3.20;2.10;;;;;;;24.07;30.89;100194.32;107512;1254;68389;-41
2023/09/10 10:05:57;;;;;;;3.00;1.80;;;;;;;24.12;30.14;100198.17;107498;1253;72672;-41
2023/09/10 10:08:32;;;;;;;4.60;1.90;;;;;;;24.28;28.94;100194.02;107466;1256;61139;-41
2023/09/10 10:11:00;;;;;;;4.00;2.00;;;;;;;24.43;29.55;100191.61;107454;1254;60341;-41
2023/09/10 10:13:28;;;;;;;3.70;1.90;;;;;;;24.61;30.08;100194.65;107506;1254;73899;-41
2023/09/10 10:15:55;;;;;;;4.00;2.00;;;;;;;24.82;30.12;100188.98;107463;1259;66334;-41
2023/09/10 10:18:26;;;;;;;3.70;2.10;;;;;;;24.93;29.58;100181.87;107490;1254;72690;-41
2023/09/10 10:20:58;;;;;;;2.20;1.90;;;;;;;24.99;29.17;100177.59;107466;1255;60116;-41
2023/09/10 10:23:26;;;;;;;4.70;2.30;;;;;;;25.04;28.87;100175.00;107363;1253;60519;-41
2023/09/10 10:25:54;;;;;;;3.10;2.10;;;;;;;25.22;28.77;100167.78;107355;1254;73856;-41
2023/09/10 10:28:22;;;;;;;3.60;2.30;;;;;;;25.41;28.84;100169.52;107502;1253;67575;-41
2023/09/10 10:30:52;;;;;;;2.60;2.20;;;;;;;25.49;28.56;100168.00;107481;1253;71538;-41
2023/09/10 10:33:21;;;;;;;4.40;2.10;;;;;;;25.60;28.69;100169.64;107482;1256;60096;-42
2023/09/10 10:36:15;;;;;;;5.30;2.10;;;;;;;25.76;28.29;100164.54;107345;1254;60325;-41
2023/09/10 10:38:43;;;;;;;3.00;2.20;;;;;;;25.97;27.51;100155.11;107513;1254;72966;-41
2023/09/10 10:41:13;;;;;;;2.70;2.30;;;;;;;26.06;26.66;100159.08;107551;1254;66797;-41
2023/09/10 10:43:52;;;;;;;2.50;1.90;;;;;;;26.08;27.45;100156.25;107508;1254;72686;-41
2023/09/10 10:46:20;;;;;;;2.40;1.90;;;;;;;26.31;27.40;100153.23;107469;1257;60568;-41
2023/09/10 10:48:48;;;;;;;3.80;2.00;;;;;;;26.61;27.36;100151.27;107226;1253;60447;-41
2023/09/10 10:51:16;;;;;;;3.30;2.10;;;;;;;26.84;27.13;100146.89;107316;1253;72557;-41
2023/09/10 10:53:46;;;;;;;5.40;2.10;;;;;;;27.10;27.10;100145.29;107334;1254;67930;-42
2023/09/10 10:56:14;;;;;;;2.40;1.90;;;;;;;27.34;26.41;100142.23;107507;1254;72712;-41
2023/09/10 10:58:41;;;;;;;2.90;2.10;;;;;;;27.64;25.69;100142.48;107491;1254;60588;-42
2023/09/10 11:01:13;;;;;;;3.70;2.00;;;;;;;27.91;25.25;100137.51;107285;1254;60119;-41
2023/09/10 11:03:42;;;;;;;3.40;1.80;;;;;;;28.02;25.09;100133.94;107491;1254;73886;-41
2023/09/10 11:06:10;;;;;;;3.10;2.10;;;;;;;28.01;24.87;100133.19;107486;1253;67620;-41
2023/09/10 11:08:48;;;;;;;3.10;2.10;;;;;;;27.77;24.73;100127.48;107499;1254;73097;-41
2023/09/10 11:11:34;;;;;;;1.90;1.70;;;;;;;27.62;25.69;100122.48;107312;1255;60293;-41
2023/09/10 11:14:05;;;;;;;3.90;2.20;;;;;;;27.81;25.38;100117.83;107495;1253;60440;-41
2023/09/10 11:16:38;;;;;;;2.60;2.00;;;;;;;28.13;25.36;100114.88;107542;1254;73869;-41
2023/09/10 11:19:06;;;;;;;2.80;1.90;;;;;;;28.43;25.10;100115.79;107462;1254;66432;-42
2023/09/10 11:21:56;;;;;;;3.60;1.90;;;;;;;28.74;24.85;100109.52;107439;1254;72465;-42
2023/09/10 11:24:24;;;;;;;2.40;2.00;;;;;;;29.12;24.19;100109.29;107441;1253;60504;-42